Time;durP1;ratioP1;P1;durP2;ratioP2;P2;SDS_P1;SDS_P2;PMS_P1;PMS_P2;Temp;Humidity;BMP_temperature;BMP_pressure;BME280_temperature;BME280_humidity;BME280_pressure;Samples;Min_cycle;Max_cycle;Signal;HPM_P1;HPM_P2
2022/11/08 00:02:29;;;;;;;3.90;2.58;;;;;;;9.52;100.00;100594.97;4841956;29;20069;-81
2022/11/08 00:04:56;;;;;;;4.82;2.47;;;;;;;9.46;100.00;100595.94;4798732;29;20046;-80
2022/11/08 00:15:40;;;;;;;3.80;2.70;;;;;;;9.29;100.00;100598.84;4829018;29;20042;-82
2022/11/08 00:18:07;;;;;;;6.00;2.70;;;;;;;9.20;100.00;100599.00;4832173;29;20086;-81
2022/11/08 00:20:33;;;;;;;7.38;2.40;;;;;;;9.21;100.00;100589.31;4838685;29;20476;-82
2022/11/08 00:23:00;;;;;;;7.25;2.72;;;;;;;9.18;100.00;100594.66;4825850;29;20500;-81
2022/11/08 00:25:27;;;;;;;6.28;3.60;;;;;;;9.23;100.00;100596.28;4832057;29;20049;-81
2022/11/08 00:27:54;;;;;;;8.27;3.22;;;;;;;9.17;100.00;100599.06;4816949;29;20058;-83
2022/11/08 00:30:21;;;;;;;5.45;2.75;;;;;;;9.19;100.00;100593.75;4796577;29;20046;-81
2022/11/08 00:32:47;;;;;;;4.90;2.70;;;;;;;9.11;100.00;100596.50;4842014;29;20046;-81
2022/11/08 00:35:14;;;;;;;8.85;3.55;;;;;;;9.26;100.00;100600.66;4811523;29;20137;-82
2022/11/08 00:37:41;;;;;;;5.57;2.70;;;;;;;9.13;100.00;100601.75;4827008;29;20112;-81
2022/11/08 00:40:09;;;;;;;5.72;3.20;;;;;;;9.14;100.00;100609.63;4827191;29;20470;-82
2022/11/08 00:42:36;;;;;;;5.40;2.75;;;;;;;9.11;100.00;100596.50;4800894;29;20054;-81
2022/11/08 00:45:03;;;;;;;8.23;3.58;;;;;;;9.23;100.00;100613.88;4824502;29;20051;-82
2022/11/08 00:47:29;;;;;;;6.40;2.92;;;;;;;9.20;100.00;100606.03;4844704;29;20418;-80
2022/11/08 00:49:56;;;;;;;5.68;3.20;;;;;;;9.16;100.00;100604.31;4829273;29;20625;-82
2022/11/08 00:52:23;;;;;;;6.70;3.00;;;;;;;9.12;100.00;100600.88;4809734;29;20042;-82
2022/11/08 00:54:49;;;;;;;6.50;2.80;;;;;;;9.21;100.00;100602.50;4809605;29;20048;-83
2022/11/08 00:57:16;;;;;;;4.85;3.33;;;;;;;9.20;100.00;100600.75;4822039;29;20049;-83
2022/11/08 00:59:43;;;;;;;5.10;2.60;;;;;;;9.16;100.00;100606.97;4825297;29;20045;-81
2022/11/08 01:02:09;;;;;;;5.45;2.97;;;;;;;9.26;100.00;100614.72;4837121;29;20044;-82
2022/11/08 01:04:36;;;;;;;5.40;2.72;;;;;;;9.25;100.00;100612.13;4828484;29;20046;-83
2022/11/08 01:07:02;;;;;;;5.35;2.53;;;;;;;9.26;100.00;100609.44;4809471;29;20653;-82
2022/11/08 01:09:29;;;;;;;5.40;2.60;;;;;;;9.38;100.00;100597.81;4804216;29;20110;-82
2022/11/08 01:11:56;;;;;;;4.30;3.00;;;;;;;9.32;100.00;100606.69;4810831;29;20098;-82
2022/11/08 01:14:22;;;;;;;5.95;2.92;;;;;;;9.36;100.00;100598.75;4826911;29;20053;-83
2022/11/08 01:16:49;;;;;;;5.82;3.08;;;;;;;9.46;100.00;100597.69;4807459;29;20046;-81
2022/11/08 01:19:16;;;;;;;4.03;2.60;;;;;;;9.41;100.00;100596.88;4824342;29;20056;-83
2022/11/08 01:21:42;;;;;;;6.70;2.80;;;;;;;9.39;100.00;100598.69;4829127;29;20155;-83
2022/11/08 01:24:09;;;;;;;3.58;2.60;;;;;;;9.38;100.00;100597.81;4824125;29;20045;-81
2022/11/08 01:26:36;;;;;;;4.43;2.90;;;;;;;9.49;100.00;100584.44;4824349;29;20450;-82
2022/11/08 01:29:02;;;;;;;10.00;4.10;;;;;;;9.50;100.00;100589.72;4824133;29;20072;-83
2022/11/08 01:31:31;;;;;;;5.50;2.97;;;;;;;9.57;100.00;100586.06;4809288;29;20646;-82
2022/11/08 01:33:58;;;;;;;5.05;3.28;;;;;;;9.51;100.00;100586.19;4808924;29;20472;-81
2022/11/08 01:36:26;;;;;;;5.57;3.00;;;;;;;9.48;100.00;100582.72;4827009;29;20058;-81
2022/11/08 01:38:53;;;;;;;4.90;3.08;;;;;;;9.58;100.00;100582.53;4811835;29;20046;-81
2022/11/08 01:41:22;;;;;;;5.72;2.92;;;;;;;9.60;100.00;100577.22;4827095;29;20042;-81
2022/11/08 01:43:50;;;;;;;5.25;2.88;;;;;;;9.68;100.00;100583.25;4813650;29;20056;-80
2022/11/08 01:46:17;;;;;;;8.10;3.25;;;;;;;9.62;100.00;100585.97;4825294;29;20381;-81
2022/11/08 01:48:52;;;;;;;7.18;4.47;;;;;;;9.61;100.00;100571.06;4826280;29;20050;-81
2022/11/08 01:51:22;;;;;;;5.68;2.90;;;;;;;9.67;100.00;100572.69;4811190;29;20461;-81
2022/11/08 01:53:49;;;;;;;6.45;2.92;;;;;;;9.60;100.00;100574.59;4811831;29;20098;-81
2022/11/08 01:56:16;;;;;;;4.47;2.80;;;;;;;9.67;100.00;100578.88;4825696;29;20057;-83
2022/11/08 01:58:45;;;;;;;7.57;2.85;;;;;;;9.74;100.00;100577.84;4826552;29;20077;-81
2022/11/08 02:01:12;;;;;;;4.63;2.70;;;;;;;9.78;100.00;100583.94;4826332;29;20038;-81
2022/11/08 02:03:40;;;;;;;6.40;2.70;;;;;;;9.73;100.00;100578.72;4826339;29;20110;-81
2022/11/08 02:06:06;;;;;;;4.85;3.10;;;;;;;9.77;100.00;100590.13;4826046;29;20110;-80
2022/11/08 02:08:39;;;;;;;4.75;2.72;;;;;;;9.76;100.00;100585.75;4826570;29;20070;-81
2022/11/08 02:11:07;;;;;;;6.82;3.55;;;;;;;9.75;100.00;100574.31;4827062;29;20426;-80
2022/11/08 02:13:36;;;;;;;5.00;2.92;;;;;;;9.75;100.00;100586.63;4826356;29;20053;-80
2022/11/08 02:16:08;;;;;;;7.72;3.20;;;;;;;9.73;100.00;100583.16;4815267;29;20045;-81
2022/11/08 02:18:35;;;;;;;6.13;3.30;;;;;;;9.73;100.00;100584.00;4823325;29;20077;-82
2022/11/08 02:21:01;;;;;;;5.13;2.95;;;;;;;9.80;100.00;100583.00;4808773;29;20050;-81
2022/11/08 02:23:42;;;;;;;6.82;2.85;;;;;;;9.78;100.00;100586.59;4833459;29;20548;-81
2022/11/08 02:26:09;;;;;;;7.00;3.53;;;;;;;9.80;100.00;100579.50;4839794;29;20057;-81
2022/11/08 02:28:40;;;;;;;6.55;2.92;;;;;;;9.70;100.00;100578.81;4811192;29;20105;-81
2022/11/08 02:31:08;;;;;;;6.07;2.90;;;;;;;9.72;100.00;100569.09;4826327;29;20050;-80
2022/11/08 02:33:35;;;;;;;7.68;3.20;;;;;;;9.75;100.00;100571.69;4810910;29;20508;-81
2022/11/08 02:36:02;;;;;;;7.63;3.08;;;;;;;9.84;100.00;100570.66;4825152;29;20098;-83
2022/11/08 02:38:29;;;;;;;6.03;2.63;;;;;;;9.83;100.00;100566.25;4811261;29;20488;-80
2022/11/08 02:40:56;;;;;;;6.03;2.80;;;;;;;9.73;100.00;100578.72;4811222;29;20502;-82
2022/11/08 02:43:23;;;;;;;6.57;3.10;;;;;;;9.71;100.00;100577.03;4841885;29;20073;-81
2022/11/08 02:45:51;;;;;;;6.63;3.05;;;;;;;9.73;100.00;100573.47;4810667;29;20110;-82
2022/11/08 02:48:18;;;;;;;5.10;2.80;;;;;;;9.68;100.00;100575.34;4825884;29;20057;-81
2022/11/08 02:50:46;;;;;;;5.43;2.90;;;;;;;9.71;100.00;100575.25;4826676;29;20465;-82
2022/11/08 02:53:13;;;;;;;5.45;2.83;;;;;;;9.74;100.00;100574.31;4826447;29;20079;-81
2022/11/08 02:55:39;;;;;;;5.20;2.63;;;;;;;9.69;100.00;100576.19;4825983;29;20050;-83
2022/11/08 02:58:06;;;;;;;4.93;2.95;;;;;;;9.73;100.00;100578.72;4842073;29;20054;-83
2022/11/08 03:00:33;;;;;;;5.13;3.10;;;;;;;9.70;100.00;100575.28;4842764;29;20411;-80
2022/11/08 03:03:00;;;;;;;5.50;2.47;;;;;;;9.70;100.00;100580.56;4835460;29;20729;-80
2022/11/08 03:05:27;;;;;;;5.00;2.92;;;;;;;9.76;100.00;100578.69;4827525;29;20066;-83
2022/11/08 03:07:54;;;;;;;5.30;2.60;;;;;;;9.68;100.00;100580.59;4822623;29;20453;-80
2022/11/08 03:10:23;;;;;;;6.03;2.83;;;;;;;9.78;100.00;100594.50;4830710;29;20080;-80
2022/11/08 03:12:57;;;;;;;6.15;3.15;;;;;;;9.75;100.00;100587.53;4828138;29;20085;-81
2022/11/08 03:15:24;;;;;;;7.95;2.90;;;;;;;9.88;100.00;100588.16;4832635;29;20069;-80
2022/11/08 03:17:51;;;;;;;5.85;3.00;;;;;;;9.84;100.00;100581.19;4825486;29;20094;-83
2022/11/08 03:20:18;;;;;;;6.90;3.05;;;;;;;9.90;100.00;100582.84;4822148;29;20079;-81
2022/11/08 03:22:45;;;;;;;4.72;3.20;;;;;;;9.85;100.00;100575.03;4797201;29;20177;-80
2022/11/08 03:25:12;;;;;;;6.75;2.95;;;;;;;9.87;100.00;100586.41;4825834;29;20050;-80
2022/11/08 03:27:39;;;;;;;6.18;2.67;;;;;;;9.84;100.00;100589.13;4825657;29;20137;-82
2022/11/08 03:30:06;;;;;;;5.68;2.92;;;;;;;9.91;100.00;100593.34;4810214;29;20466;-81
2022/11/08 03:32:33;;;;;;;5.30;3.30;;;;;;;9.94;100.00;100595.09;4826723;29;20050;-81
2022/11/08 03:35:03;;;;;;;4.65;2.75;;;;;;;9.99;100.00;100590.56;4807078;29;20050;-83
2022/11/08 03:37:30;;;;;;;7.10;3.63;;;;;;;10.15;100.00;100584.97;4822369;29;20054;-83
2022/11/08 03:39:56;;;;;;;7.82;3.00;;;;;;;10.12;100.00;100577.13;4823661;29;20053;-82
2022/11/08 03:42:23;;;;;;;5.72;2.92;;;;;;;10.05;100.00;100569.34;4825922;29;21821;-82
2022/11/08 03:44:49;;;;;;;3.92;2.85;;;;;;;10.07;100.00;100575.47;4815949;29;20074;-82
2022/11/08 03:47:16;;;;;;;7.13;3.42;;;;;;;10.08;100.00;100571.91;4822270;29;20385;-82
2022/11/08 03:49:43;;;;;;;5.15;2.58;;;;;;;10.11;100.00;100574.50;4810332;29;20094;-81
2022/11/08 03:52:09;;;;;;;4.43;2.83;;;;;;;10.06;100.00;100579.00;4791844;29;20050;-82
2022/11/08 03:54:36;;;;;;;6.88;3.20;;;;;;;10.02;100.00;100579.97;4832279;29;20049;-81
2022/11/08 03:57:03;;;;;;;7.03;3.25;;;;;;;10.03;100.00;100590.50;4825490;29;20420;-82
2022/11/08 03:59:29;;;;;;;8.68;3.35;;;;;;;10.11;100.00;100585.94;4832357;29;20056;-82
2022/11/08 04:01:56;;;;;;;6.70;3.13;;;;;;;10.02;100.00;100578.19;4809778;29;20046;-82
2022/11/08 04:04:23;;;;;;;6.97;2.92;;;;;;;10.16;100.00;100585.84;4816362;29;20454;-81
2022/11/08 04:06:50;;;;;;;5.80;2.83;;;;;;;10.13;100.00;100584.13;4809913;29;20524;-80
2022/11/08 04:09:16;;;;;;;6.72;3.15;;;;;;;10.09;100.00;100573.69;4839867;29;20057;-81
2022/11/08 04:17:17;;;;;;;5.53;2.78;;;;;;;10.14;100.00;100577.94;4840760;29;20050;-81
2022/11/08 04:22:29;;;;;;;7.63;3.35;;;;;;;10.18;100.00;100584.06;4831401;29;20098;-81
2022/11/08 04:24:56;;;;;;;4.82;2.80;;;;;;;10.21;100.00;100585.75;4846671;29;20069;-80
2022/11/08 04:27:22;;;;;;;7.18;3.53;;;;;;;10.15;100.00;100590.25;4846170;29;20053;-82
2022/11/08 04:29:49;;;;;;;5.50;2.70;;;;;;;10.13;100.00;100588.53;4827795;29;20045;-81
2022/11/08 04:32:16;;;;;;;9.45;3.22;;;;;;;10.28;100.00;100588.28;4828274;29;20053;-80
2022/11/08 04:34:42;;;;;;;5.88;3.15;;;;;;;10.16;100.00;100588.47;4828375;29;20065;-82
2022/11/08 04:37:12;;;;;;;5.78;2.88;;;;;;;10.16;100.00;100594.63;4828940;29;20404;-82
2022/11/08 04:39:39;;;;;;;6.07;2.90;;;;;;;10.20;100.00;100581.38;4828215;29;20057;-82
2022/11/08 04:42:05;;;;;;;5.22;3.08;;;;;;;10.26;100.00;100579.53;4829848;29;20049;-81
2022/11/08 04:44:32;;;;;;;6.35;2.72;;;;;;;10.26;100.00;100576.00;4820197;29;20050;-81
2022/11/08 04:46:59;;;;;;;5.25;2.72;;;;;;;10.30;100.00;100585.59;4838579;29;20514;-84
2022/11/08 04:49:25;;;;;;;6.20;3.22;;;;;;;10.21;100.00;100573.41;4816676;29;20428;-80
2022/11/08 04:51:54;;;;;;;5.38;2.70;;;;;;;10.19;100.00;100577.88;4839329;29;20174;-84
2022/11/08 04:54:21;;;;;;;9.13;3.05;;;;;;;10.19;100.00;100577.00;4837313;29;20046;-81
2022/11/08 04:56:48;;;;;;;8.48;2.95;;;;;;;10.16;100.00;100575.28;4828911;29;20052;-81
2022/11/08 04:59:14;;;;;;;5.80;2.80;;;;;;;10.11;100.00;100578.03;4831497;29;20041;-81
2022/11/08 05:01:41;;;;;;;5.15;2.90;;;;;;;10.12;100.00;100579.75;4844943;29;20102;-83
2022/11/08 05:04:09;;;;;;;4.13;2.60;;;;;;;10.16;100.00;100583.19;4827888;29;20436;-80
2022/11/08 05:06:35;;;;;;;5.38;2.85;;;;;;;10.17;100.00;100584.94;4827363;29;20885;-81
2022/11/08 05:09:02;;;;;;;5.70;3.05;;;;;;;10.14;100.00;100580.59;4827438;29;20054;-81
2022/11/08 05:11:29;;;;;;;4.45;2.65;;;;;;;10.14;100.00;100585.00;4832588;29;20057;-81
2022/11/08 05:13:56;;;;;;;7.15;3.28;;;;;;;10.15;100.00;100579.69;4819042;29;20046;-81
2022/11/08 05:18:57;;;;;;;4.50;2.30;;;;;;;10.03;100.00;100582.56;4878391;29;20049;-84
2022/11/08 05:24:11;;;;;;;6.22;3.10;;;;;;;9.83;100.00;100590.84;4886984;29;20508;-84
2022/11/08 05:26:43;;;;;;;6.05;2.72;;;;;;;9.78;100.00;100587.44;4867828;29;20053;-85
2022/11/08 05:29:11;;;;;;;4.38;3.35;;;;;;;9.72;100.00;100582.28;4883931;29;20036;-85
2022/11/08 05:31:38;;;;;;;6.35;2.47;;;;;;;9.71;100.00;100585.81;4874014;29;20041;-84
2022/11/08 05:34:06;;;;;;;7.30;3.30;;;;;;;9.64;100.00;100583.31;4847985;29;20041;-84
2022/11/08 05:36:32;;;;;;;5.50;2.47;;;;;;;9.55;100.00;100579.94;4848752;29;20049;-85
2022/11/08 05:38:59;;;;;;;3.63;3.03;;;;;;;9.48;100.00;100580.94;4841797;29;20044;-84
2022/11/08 05:41:26;;;;;;;7.10;2.97;;;;;;;9.42;100.00;100583.69;4846020;29;20053;-85
2022/11/08 05:43:53;;;;;;;6.28;2.75;;;;;;;9.39;100.00;100586.38;4857888;29;20104;-85
2022/11/08 05:46:21;;;;;;;5.55;2.50;;;;;;;9.34;100.00;100593.50;4883027;29;20056;-84
2022/11/08 05:48:49;;;;;;;5.78;3.10;;;;;;;9.37;100.00;100588.16;4851299;29;20056;-84
2022/11/08 05:51:17;;;;;;;4.95;2.88;;;;;;;9.36;100.00;100593.47;4865941;29;20049;-84
2022/11/08 05:53:45;;;;;;;5.32;2.88;;;;;;;9.30;100.00;100589.16;4867028;29;20041;-85
2022/11/08 05:56:12;;;;;;;7.20;2.70;;;;;;;9.24;100.00;100594.53;4883318;29;20044;-85
2022/11/08 05:58:39;;;;;;;3.70;2.80;;;;;;;9.21;100.00;100590.19;4849494;29;20056;-85
2022/11/08 06:01:08;;;;;;;3.67;2.58;;;;;;;9.20;100.00;100599.00;4865742;29;20124;-84
2022/11/08 06:03:36;;;;;;;4.55;3.33;;;;;;;9.16;100.00;100601.69;4863708;29;20055;-84
2022/11/08 06:06:06;;;;;;;8.02;3.05;;;;;;;9.13;100.00;100592.06;4863404;29;20053;-84
2022/11/08 06:08:34;;;;;;;6.05;3.28;;;;;;;9.03;100.00;100585.22;4849784;29;20052;-85
2022/11/08 06:11:09;;;;;;;6.05;2.65;;;;;;;8.93;100.00;100587.13;4834920;29;20463;-85
2022/11/08 06:13:36;;;;;;;6.43;3.10;;;;;;;8.89;100.00;100595.06;4849504;29;20041;-84
2022/11/08 06:16:05;;;;;;;8.02;3.72;;;;;;;8.81;100.00;100595.19;4848515;29;20117;-84
2022/11/08 06:18:33;;;;;;;5.88;3.60;;;;;;;8.78;100.00;100591.72;4865603;29;20049;-83
2022/11/08 06:21:00;;;;;;;7.35;2.78;;;;;;;8.73;100.00;100597.06;4865639;29;20052;-83
2022/11/08 06:23:27;;;;;;;5.38;2.95;;;;;;;8.74;100.00;100606.69;4857801;29;20041;-84
2022/11/08 06:25:54;;;;;;;5.63;3.00;;;;;;;8.65;100.00;100604.19;4870363;29;20045;-83
2022/11/08 06:28:21;;;;;;;6.50;2.97;;;;;;;8.57;100.00;100606.03;4866841;29;20052;-85
2022/11/08 06:30:47;;;;;;;5.32;2.88;;;;;;;8.48;100.00;100604.41;4856216;29;20103;-84
2022/11/08 06:33:14;;;;;;;6.22;3.10;;;;;;;8.42;100.00;100605.38;4837277;29;20041;-84
2022/11/08 06:35:41;;;;;;;6.50;2.83;;;;;;;8.40;100.00;100604.50;4850553;29;20068;-84
2022/11/08 06:38:09;;;;;;;4.68;3.60;;;;;;;8.38;100.00;100608.06;4864906;29;20452;-84
2022/11/08 06:40:39;;;;;;;5.77;3.40;;;;;;;8.38;100.00;100608.91;4868316;29;20069;-84
2022/11/08 06:43:06;;;;;;;6.25;2.78;;;;;;;8.30;100.00;100609.88;4855738;29;20039;-84
2022/11/08 06:45:32;;;;;;;6.05;2.85;;;;;;;8.27;100.00;100613.41;4851262;29;20106;-85
2022/11/08 06:48:01;;;;;;;5.40;3.00;;;;;;;8.25;100.00;100609.94;4879386;29;20045;-85
2022/11/08 06:50:29;;;;;;;6.20;3.17;;;;;;;8.24;100.00;100610.84;4833516;29;20438;-85
2022/11/08 06:53:00;;;;;;;5.87;2.70;;;;;;;8.22;100.00;100609.97;4865301;29;20045;-83
2022/11/08 06:55:28;;;;;;;4.13;2.78;;;;;;;8.21;100.00;100617.88;4859144;29;20056;-84
2022/11/08 06:57:55;;;;;;;6.55;3.40;;;;;;;8.24;100.00;100609.94;4878306;29;20612;-83
2022/11/08 07:00:22;;;;;;;5.60;2.70;;;;;;;8.25;100.00;100617.84;4847925;29;20048;-85
2022/11/08 07:02:53;;;;;;;6.83;3.47;;;;;;;8.26;100.00;100614.31;4876252;29;20082;-85
2022/11/08 07:05:20;;;;;;;6.00;3.40;;;;;;;8.35;100.00;100626.53;4843879;29;20053;-85
2022/11/08 07:07:53;;;;;;;5.63;3.43;;;;;;;8.32;100.00;100627.38;4827978;29;20052;-84
2022/11/08 07:10:22;;;;;;;7.40;3.17;;;;;;;8.33;100.00;100623.88;4831510;29;20060;-85
2022/11/08 07:12:57;;;;;;;7.07;3.20;;;;;;;8.37;100.00;100622.97;4839381;29;20044;-84
2022/11/08 07:15:24;;;;;;;9.20;3.50;;;;;;;8.44;100.00;100626.41;4894832;29;20112;-85
2022/11/08 07:17:50;;;;;;;6.70;3.60;;;;;;;8.44;100.00;100624.66;4870484;29;20045;-85
2022/11/08 07:20:17;;;;;;;7.05;3.60;;;;;;;8.57;100.00;100617.44;4846842;29;20101;-85
2022/11/08 07:22:44;;;;;;;5.07;4.10;;;;;;;8.58;100.00;100615.72;4850156;29;20498;-84
2022/11/08 07:25:10;;;;;;;8.60;3.60;;;;;;;8.59;100.00;100609.56;4855751;29;20052;-84
2022/11/08 07:27:37;;;;;;;5.77;3.43;;;;;;;8.58;100.00;100618.34;4874279;29;20068;-84
2022/11/08 07:30:04;;;;;;;7.40;3.60;;;;;;;8.73;100.00;100626.88;4888584;29;20041;-84
2022/11/08 07:32:31;;;;;;;6.07;3.87;;;;;;;8.66;100.00;100620.00;4869856;29;20073;-84
2022/11/08 07:34:58;;;;;;;5.87;3.97;;;;;;;8.69;100.00;100617.31;4834533;29;20041;-84
2022/11/08 07:37:25;;;;;;;4.82;4.03;;;;;;;8.75;100.00;100619.00;4865183;29;20054;-84
2022/11/08 07:39:51;;;;;;;6.68;3.55;;;;;;;8.74;100.00;100618.13;4871816;29;20114;-84
2022/11/08 07:42:18;;;;;;;8.67;3.60;;;;;;;8.78;100.00;100625.97;4880394;29;20065;-83
2022/11/08 07:44:44;;;;;;;7.27;3.20;;;;;;;8.76;100.00;100622.50;4870079;29;20048;-84
2022/11/08 07:47:11;;;;;;;8.32;3.70;;;;;;;8.79;100.00;100619.81;4871174;29;20049;-84
2022/11/08 07:49:38;;;;;;;5.90;3.70;;;;;;;8.95;100.00;100624.84;4881202;29;20036;-84
2022/11/08 07:52:13;;;;;;;7.25;3.38;;;;;;;9.05;100.00;100620.31;4866122;29;20550;-83
2022/11/08 07:54:57;;;;;;;5.05;3.63;;;;;;;9.02;100.00;100623.88;4879197;29;20065;-84
2022/11/08 07:57:28;;;;;;;4.53;3.65;;;;;;;9.13;100.00;100628.97;4859087;29;20059;-85
2022/11/08 07:59:57;;;;;;;7.28;3.85;;;;;;;9.21;100.00;100619.19;4867849;29;20044;-84
2022/11/08 08:02:32;;;;;;;6.63;3.70;;;;;;;9.28;100.00;100620.81;4853874;29;20073;-84
2022/11/08 08:04:59;;;;;;;8.05;3.40;;;;;;;9.36;100.00;100618.06;4902292;29;20426;-83
2022/11/08 08:07:59;;;;;;;5.43;3.67;;;;;;;9.35;100.00;100621.59;4876258;29;20055;-83
2022/11/08 08:10:35;;;;;;;9.20;3.78;;;;;;;9.35;100.00;100613.69;4872733;29;20057;-84
2022/11/08 08:13:02;;;;;;;7.32;4.22;;;;;;;9.46;100.00;100618.78;4876891;29;20049;-83
2022/11/08 08:15:56;;;;;;;11.15;3.63;;;;;;;9.46;100.00;100617.03;4857724;29;20063;-84
2022/11/08 08:18:27;;;;;;;8.27;3.45;;;;;;;9.42;100.00;100615.34;4865449;29;20148;-84
2022/11/08 08:20:54;;;;;;;7.38;4.30;;;;;;;9.39;100.00;100609.22;4866485;29;20072;-84
2022/11/08 08:23:21;;;;;;;6.10;4.65;;;;;;;9.61;100.00;100601.84;4853455;29;20486;-84
2022/11/08 08:25:47;;;;;;;7.45;3.80;;;;;;;9.53;100.00;100607.25;4880240;29;20045;-84
2022/11/08 08:28:14;;;;;;;6.28;3.80;;;;;;;9.67;100.00;100597.34;4851590;29;20041;-84
2022/11/08 08:30:41;;;;;;;7.13;3.70;;;;;;;9.67;100.00;100604.34;4850293;29;20518;-80
2022/11/08 08:33:11;;;;;;;7.30;4.47;;;;;;;9.74;100.00;100605.97;4851663;29;20056;-85
2022/11/08 08:35:56;;;;;;;6.55;3.80;;;;;;;9.84;100.00;100597.03;4870129;29;20036;-85
2022/11/08 08:38:23;;;;;;;6.95;3.33;;;;;;;9.82;100.00;100596.16;4838346;29;20045;-84
2022/11/08 08:40:50;;;;;;;5.22;3.40;;;;;;;10.00;100.00;100603.72;4867702;29;20045;-84
2022/11/08 08:43:17;;;;;;;7.40;4.53;;;;;;;10.01;100.00;100604.63;4853901;29;21376;-83
2022/11/08 08:45:44;;;;;;;9.15;3.78;;;;;;;10.17;100.00;100592.84;4837189;29;20414;-85
2022/11/08 08:48:11;;;;;;;5.68;3.03;;;;;;;10.27;100.00;100590.94;4840122;29;20430;-84
2022/11/08 08:50:38;;;;;;;4.13;2.80;;;;;;;10.28;100.00;100584.75;4848559;29;20079;-84
2022/11/08 08:53:04;;;;;;;7.85;2.90;;;;;;;10.41;100.00;100592.38;4849801;29;20127;-85
2022/11/08 08:55:34;;;;;;;7.00;3.10;;;;;;;10.50;100.00;100587.81;4868626;29;20067;-84
2022/11/08 08:58:01;;;;;;;6.35;3.58;;;;;;;10.66;100.00;100584.81;4856289;29;20095;-85
2022/11/08 09:00:27;;;;;;;6.70;3.20;;;;;;;10.65;100.00;100592.78;4836189;29;20067;-84
2022/11/08 09:03:14;;;;;;;6.10;3.45;;;;;;;10.71;100.00;100588.22;4844522;29;20057;-84
2022/11/08 09:05:42;;;;;;;6.43;3.70;;;;;;;10.97;100.00;100579.69;4865913;29;20049;-84
2022/11/08 09:08:10;;;;;;;4.38;2.80;;;;;;;11.05;100.00;100589.22;4851453;29;20048;-83
2022/11/08 09:10:37;;;;;;;6.57;2.90;;;;;;;11.12;100.00;100586.41;4831603;29;20049;-85
2022/11/08 09:13:04;;;;;;;4.85;2.22;;;;;;;11.28;100.00;100579.84;4853906;29;20513;-84
2022/11/08 09:15:30;;;;;;;5.72;2.75;;;;;;;11.20;100.00;100580.94;4850123;29;20057;-85
2022/11/08 09:17:57;;;;;;;5.05;2.85;;;;;;;11.29;100.00;100580.72;4848963;29;20053;-83
2022/11/08 09:20:24;;;;;;;5.82;3.05;;;;;;;11.40;100.00;100572.50;4862736;29;20053;-84
2022/11/08 09:22:50;;;;;;;6.20;2.83;;;;;;;11.38;100.00;100569.03;4851096;29;20056;-83
2022/11/08 09:25:17;;;;;;;6.28;2.40;;;;;;;11.46;100.00;100575.88;4835145;29;20049;-84
2022/11/08 09:27:44;;;;;;;3.97;2.85;;;;;;;11.53;100.00;100572.16;4852535;29;20053;-84
2022/11/08 09:30:10;;;;;;;5.82;2.63;;;;;;;11.67;100.00;100569.13;4857342;29;20108;-84
2022/11/08 09:32:37;;;;;;;6.68;2.50;;;;;;;11.89;100.00;100568.59;4864215;29;20434;-83
2022/11/08 09:35:24;;;;;;;6.85;3.03;;;;;;;12.07;100.00;100576.91;4840525;29;20096;-83
2022/11/08 09:37:54;;;;;;;5.65;2.10;;;;;;;12.15;100.00;100568.75;4870540;29;20083;-84
2022/11/08 09:40:45;;;;;;;5.50;3.10;;;;;;;12.22;100.00;100567.66;4888400;29;20037;-85
2022/11/08 09:43:36;;;;;;;7.22;2.47;;;;;;;12.31;100.00;100569.19;4870237;29;20048;-82
2022/11/08 09:46:03;;;;;;;7.32;2.55;;;;;;;12.40;100.00;100563.59;4869548;29;20048;-84
2022/11/08 09:48:35;;;;;;;4.50;2.45;;;;;;;12.42;100.00;100561.78;4875966;29;20075;-86
2022/11/08 09:51:09;;;;;;;4.18;2.45;;;;;;;12.48;100.00;100561.59;4850338;29;20060;-84
2022/11/08 09:53:53;;;;;;;5.75;2.60;;;;;;;12.57;100.00;100553.38;4835831;29;20048;-83
2022/11/08 09:56:34;;;;;;;6.28;2.70;;;;;;;12.72;100.00;100553.81;4867483;29;20053;-83
2022/11/08 09:59:24;;;;;;;5.15;3.03;;;;;;;12.84;100.00;100554.28;4914583;29;20040;-82
2022/11/08 10:01:51;;;;;;;3.28;2.00;;;;;;;12.96;100.00;100543.31;4883714;29;20040;-82
2022/11/08 10:04:23;;;;;;;5.72;3.15;;;;;;;13.08;100.00;100546.47;4885644;29;20044;-84
2022/11/08 10:07:06;;;;;;;6.78;2.78;;;;;;;13.25;100.00;100544.16;4847075;29;20072;-83
2022/11/08 10:10:10;;;;;;;5.20;2.50;;;;;;;13.42;100.00;100547.13;4864653;29;20152;-85
2022/11/08 10:12:46;;;;;;;5.18;2.17;;;;;;;13.57;100.00;100544.88;4848222;29;20037;-85
2022/11/08 10:15:33;;;;;;;4.53;2.25;;;;;;;13.65;100.00;100543.69;4877808;29;20434;-84
2022/11/08 10:18:19;;;;;;;4.82;2.40;;;;;;;13.62;100.00;100542.91;4863003;29;20101;-83
2022/11/08 10:21:00;;;;;;;4.35;2.05;;;;;;;13.62;100.00;100538.50;4856186;29;20104;-84
2022/11/08 10:23:39;;;;;;;3.83;2.28;;;;;;;13.66;100.00;100537.44;4846712;29;20514;-84
2022/11/08 10:26:17;;;;;;;7.65;2.47;;;;;;;13.75;100.00;100528.28;4847430;29;20093;-82
2022/11/08 10:29:00;;;;;;;6.28;2.60;;;;;;;13.84;100.00;100535.94;4834610;29;20052;-82
2022/11/08 10:31:31;;;;;;;4.68;2.35;;;;;;;13.89;100.00;100533.13;4842742;29;20499;-84
2022/11/08 10:33:59;;;;;;;8.02;2.47;;;;;;;13.92;98.74;100530.34;4832332;29;20461;-84
2022/11/08 10:36:30;;;;;;;5.75;2.38;;;;;;;13.90;99.78;100533.06;4829364;29;20131;-82
2022/11/08 10:39:12;;;;;;;6.32;2.10;;;;;;;13.98;99.43;100532.78;4896578;29;20045;-84
2022/11/08 10:41:53;;;;;;;2.92;1.90;;;;;;;14.18;98.68;100532.03;4849703;29;20068;-86
2022/11/08 10:44:23;;;;;;;5.45;2.30;;;;;;;14.19;99.27;100529.31;4840046;29;20063;-87
2022/11/08 10:47:01;;;;;;;4.65;2.40;;;;;;;14.28;97.49;100521.00;4861621;29;20048;-85
2022/11/08 10:49:32;;;;;;;5.47;2.22;;;;;;;14.39;95.66;100525.94;4874310;29;20147;-85
2022/11/08 10:52:11;;;;;;;5.65;2.28;;;;;;;14.40;95.26;100514.38;4852518;29;20041;-86
2022/11/08 10:54:47;;;;;;;3.45;2.08;;;;;;;14.36;95.42;100518.91;4860683;29;20033;-85
2022/11/08 10:57:38;;;;;;;4.35;2.13;;;;;;;14.25;95.42;100517.59;4861280;29;20075;-85
2022/11/08 11:00:14;;;;;;;7.60;2.28;;;;;;;14.21;95.61;100516.88;4847582;29;20448;-86
2022/11/08 11:02:41;;;;;;;5.32;2.25;;;;;;;14.31;96.51;100506.75;4864785;29;20109;-86
2022/11/08 11:05:30;;;;;;;3.70;2.42;;;;;;;14.42;94.68;100507.19;4848964;29;20464;-86
2022/11/08 11:08:03;;;;;;;6.18;2.92;;;;;;;14.55;93.11;100497.88;4830839;29;20548;-85
2022/11/08 11:10:31;;;;;;;3.70;2.38;;;;;;;14.75;92.32;100501.50;4849530;29;20049;-86
2022/11/08 11:13:26;;;;;;;3.63;1.95;;;;;;;14.79;92.71;100501.31;4869761;29;20110;-86
2022/11/08 11:16:03;;;;;;;8.13;2.33;;;;;;;14.80;91.63;100491.56;4875668;29;20124;-87
2022/11/08 11:18:51;;;;;;;4.05;1.92;;;;;;;14.92;89.69;100491.91;4878563;29;20896;-86
2022/11/08 11:21:21;;;;;;;5.15;2.22;;;;;;;14.87;89.69;100493.03;4863958;29;20537;-86
2022/11/08 11:23:52;;;;;;;3.90;1.90;;;;;;;14.91;90.67;100491.97;4853301;29;20041;-83
2022/11/08 11:26:39;;;;;;;3.45;1.70;;;;;;;15.08;88.16;100478.84;4858447;29;20056;-82
2022/11/08 11:29:15;;;;;;;4.15;1.95;;;;;;;15.03;89.23;100483.47;4879666;29;20059;-85
2022/11/08 11:31:44;;;;;;;5.22;1.70;;;;;;;15.01;89.61;100480.03;4878837;29;20085;-82
2022/11/08 11:34:17;;;;;;;4.82;2.05;;;;;;;15.05;90.40;100481.66;4850540;29;20045;-81
2022/11/08 11:36:49;;;;;;;5.18;2.53;;;;;;;15.27;88.29;100478.06;4858012;29;20045;-83
2022/11/08 11:39:36;;;;;;;5.15;2.35;;;;;;;15.37;86.62;100471.41;4866560;29;20101;-83
2022/11/08 11:42:12;;;;;;;4.13;1.73;;;;;;;15.41;84.79;100473.03;4846692;29;20061;-82
2022/11/08 11:45:07;;;;;;;6.57;1.75;;;;;;;15.48;86.44;100472.69;4868163;29;20089;-82
2022/11/08 11:47:51;;;;;;;3.58;1.80;;;;;;;15.52;84.19;100462.75;4864092;29;20135;-83
2022/11/08 11:50:31;;;;;;;3.95;1.70;;;;;;;15.60;82.76;100459.75;4862813;29;20059;-82
2022/11/08 11:52:59;;;;;;;3.72;1.50;;;;;;;15.60;82.68;100457.97;4880779;29;20048;-81
2022/11/08 11:55:46;;;;;;;2.80;1.60;;;;;;;15.57;81.57;100454.59;4847442;29;20132;-81
2022/11/08 11:58:40;;;;;;;5.93;2.10;;;;;;;15.65;82.55;100453.34;4849725;29;20110;-81